Time;durP1;ratioP1;P1;durP2;ratioP2;P2;SDS_P1;SDS_P2;PMS_P1;PMS_P2;Temp;Humidity;BMP_temperature;BMP_pressure;BME280_temperature;BME280_humidity;BME280_pressure;Samples;Min_cycle;Max_cycle;Signal;HPM_P1;HPM_P2
2022/12/04 00:01:05;;;;;;;5.28;2.78;;;10.00;89.90;;;;;;10899970;32;20035;-74
2022/12/04 00:07:07;;;;;;;3.50;1.80;;;10.10;89.80;;;;;;10900097;32;20259;-74
2022/12/04 00:13:09;;;;;;;4.43;2.10;;;10.10;89.70;;;;;;10886597;32;20054;-75
2022/12/04 00:19:11;;;;;;;3.42;2.25;;;10.10;89.60;;;;;;10898637;32;20023;-75
2022/12/04 00:25:14;;;;;;;3.75;2.28;;;10.10;89.60;;;;;;10899552;32;20084;-73
2022/12/04 00:31:19;;;;;;;3.70;2.05;;;10.10;89.50;;;;;;10895166;32;20023;-74
2022/12/04 00:37:21;;;;;;;3.78;2.42;;;10.20;89.60;;;;;;10899209;32;20031;-73
2022/12/04 00:43:23;;;;;;;2.95;1.83;;;10.20;89.80;;;;;;10885728;32;20081;-75
2022/12/04 00:49:26;;;;;;;5.10;2.45;;;10.20;89.90;;;;;;10899057;32;20029;-75
2022/12/04 00:55:27;;;;;;;4.65;2.55;;;10.20;89.60;;;;;;10898742;32;20046;-74
2022/12/04 01:01:30;;;;;;;3.42;2.08;;;10.20;89.10;;;;;;10898540;32;20388;-75
2022/12/04 01:07:33;;;;;;;5.32;2.70;;;10.20;89.30;;;;;;10898444;32;20020;-73
2022/12/04 01:13:35;;;;;;;2.55;1.45;;;10.20;88.90;;;;;;10904283;32;20037;-75
2022/12/04 01:19:37;;;;;;;3.78;1.77;;;10.20;89.10;;;;;;10902412;32;20054;-74
2022/12/04 01:25:39;;;;;;;3.35;2.22;;;10.20;89.40;;;;;;10903442;32;20019;-74
2022/12/04 01:31:41;;;;;;;2.60;1.90;;;10.20;89.10;;;;;;10906164;27;20039;-74
2022/12/04 01:37:43;;;;;;;4.85;2.28;;;10.20;89.30;;;;;;10903803;32;20054;-73
2022/12/04 01:44:05;;;;;;;7.90;3.22;;;10.30;89.10;;;;;;10904170;32;20061;-74
2022/12/04 01:50:07;;;;;;;5.07;2.33;;;10.30;89.00;;;;;;10904105;32;20046;-74
2022/12/04 01:56:13;;;;;;;2.45;1.73;;;10.30;88.90;;;;;;10951819;32;20427;-73
2022/12/04 02:02:21;;;;;;;2.95;1.77;;;10.30;89.00;;;;;;10903572;32;20023;-73
2022/12/04 02:08:23;;;;;;;2.60;1.50;;;10.30;89.00;;;;;;10903409;32;20019;-75
2022/12/04 02:15:15;;;;;;;3.53;2.10;;;10.40;89.00;;;;;;10903417;32;20062;-75
2022/12/04 02:21:28;;;;;;;3.22;1.98;;;10.40;88.90;;;;;;10898995;32;20027;-75
2022/12/04 02:27:56;;;;;;;4.68;2.37;;;10.50;88.90;;;;;;10973538;32;20048;-74
2022/12/04 02:34:22;;;;;;;2.80;1.58;;;10.50;88.50;;;;;;11060666;32;20044;-76
2022/12/04 02:40:28;;;;;;;3.42;1.85;;;10.50;88.70;;;;;;11056132;32;20034;-75
2022/12/04 02:46:41;;;;;;;3.33;2.05;;;10.50;88.60;;;;;;11056185;32;20049;-77
2022/12/04 02:52:52;;;;;;;2.83;1.83;;;10.50;88.70;;;;;;11059146;32;20061;-74
2022/12/04 02:58:59;;;;;;;2.55;1.50;;;10.50;88.40;;;;;;11059055;32;20052;-74
2022/12/04 03:05:09;;;;;;;1.83;1.30;;;10.50;88.50;;;;;;11057265;32;20355;-74
2022/12/04 03:11:11;;;;;;;1.70;1.60;;;10.50;88.60;;;;;;11056433;32;20026;-74
2022/12/04 03:17:21;;;;;;;3.95;1.75;;;10.60;88.70;;;;;;11058981;32;20065;-76
2022/12/04 03:23:55;;;;;;;5.37;2.08;;;10.50;88.50;;;;;;11055932;32;20026;-74
2022/12/04 03:30:01;;;;;;;2.25;1.33;;;10.50;88.60;;;;;;10969843;32;20279;-75
2022/12/04 03:36:18;;;;;;;3.22;1.62;;;10.40;88.70;;;;;;10900613;32;20054;-75
2022/12/04 03:42:26;;;;;;;4.03;2.10;;;10.50;88.90;;;;;;10900542;32;20031;-75
2022/12/04 03:48:40;;;;;;;3.08;1.92;;;10.40;88.90;;;;;;10899176;32;20023;-76
2022/12/04 03:54:55;;;;;;;3.60;2.20;;;10.40;88.70;;;;;;10900408;32;20042;-76
2022/12/04 04:01:11;;;;;;;3.00;1.85;;;10.30;88.70;;;;;;10898048;32;20066;-76
2022/12/04 04:07:34;;;;;;;2.83;1.85;;;10.20;88.80;;;;;;10898023;32;20328;-77
2022/12/04 04:26:44;;;;;;;3.62;2.33;;;10.20;89.00;;;;;;10898043;32;20095;-78
2022/12/04 04:32:55;;;;;;;3.35;1.83;;;10.20;88.70;;;;;;10896389;32;20050;-77
2022/12/04 04:39:21;;;;;;;6.37;2.30;;;10.10;89.00;;;;;;10897632;32;20057;-75
2022/12/04 04:45:30;;;;;;;4.00;1.65;;;10.10;88.90;;;;;;10896355;32;20424;-74
2022/12/04 04:51:33;;;;;;;4.75;2.22;;;10.00;89.00;;;;;;10895921;32;20027;-73
2022/12/04 04:57:36;;;;;;;10.52;2.37;;;10.00;89.20;;;;;;10898694;32;20454;-75
2022/12/04 05:03:40;;;;;;;2.70;1.65;;;10.00;89.20;;;;;;10949994;32;20046;-74
2022/12/04 05:09:42;;;;;;;3.87;1.73;;;10.00;89.20;;;;;;10894643;32;20329;-76
2022/12/04 05:15:44;;;;;;;2.92;2.08;;;9.90;89.20;;;;;;10897360;32;20063;-78
2022/12/04 05:21:47;;;;;;;5.07;2.60;;;9.90;89.30;;;;;;10894338;32;20049;-74
2022/12/04 05:27:49;;;;;;;5.85;2.97;;;9.80;89.40;;;;;;10898204;32;20046;-73
2022/12/04 05:33:51;;;;;;;4.15;2.33;;;9.80;89.70;;;;;;10895570;32;20038;-73
2022/12/04 05:40:07;;;;;;;5.03;2.33;;;9.70;89.60;;;;;;10897716;32;20453;-72
2022/12/04 05:46:34;;;;;;;3.05;2.20;;;9.70;89.80;;;;;;10897689;32;20019;-73
2022/12/04 05:52:36;;;;;;;2.85;1.73;;;9.60;89.90;;;;;;10897462;32;20054;-73
2022/12/04 05:58:39;;;;;;;3.78;2.65;;;9.70;90.00;;;;;;10901799;32;20032;-72
2022/12/04 06:04:41;;;;;;;7.25;4.45;;;9.70;90.10;;;;;;10903786;32;20046;-72
2022/12/04 06:10:43;;;;;;;5.03;2.87;;;9.70;90.10;;;;;;10955415;32;20305;-72
2022/12/04 06:16:46;;;;;;;3.75;2.53;;;9.70;90.20;;;;;;10955249;32;20034;-72
2022/12/04 06:22:48;;;;;;;6.28;2.50;;;9.70;90.40;;;;;;10903236;32;20019;-72
2022/12/04 06:28:53;;;;;;;4.72;1.37;;;9.70;90.50;;;;;;10954448;32;20073;-73
2022/12/04 06:34:55;;;;;;;7.90;2.12;;;9.70;90.60;;;;;;10902906;32;20023;-73
2022/12/04 06:40:57;;;;;;;4.35;2.35;;;9.70;90.60;;;;;;10902651;32;20027;-72
2022/12/04 06:46:59;;;;;;;4.40;2.55;;;9.80;90.70;;;;;;10902360;32;20050;-73
2022/12/04 06:53:01;;;;;;;3.37;1.95;;;9.80;90.60;;;;;;10900406;32;20345;-73
2022/12/04 06:59:04;;;;;;;3.95;2.15;;;9.70;90.70;;;;;;10897137;32;20042;-73
2022/12/04 07:05:07;;;;;;;2.50;1.23;;;9.70;90.70;;;;;;10953508;32;20019;-73
2022/12/04 07:11:10;;;;;;;2.30;1.65;;;9.70;90.80;;;;;;10900356;32;20016;-72
2022/12/04 07:17:12;;;;;;;3.03;1.37;;;9.80;90.70;;;;;;10898500;32;20042;-73
2022/12/04 07:23:14;;;;;;;2.95;1.75;;;9.80;90.80;;;;;;10948803;32;20069;-72
2022/12/04 07:29:16;;;;;;;3.35;2.05;;;9.80;90.90;;;;;;10897083;32;20426;-71
2022/12/04 07:35:19;;;;;;;3.00;1.98;;;9.80;90.90;;;;;;10901106;32;20016;-72
2022/12/04 07:41:21;;;;;;;3.78;2.37;;;9.80;90.80;;;;;;10900913;32;20034;-75
2022/12/04 07:47:24;;;;;;;6.55;3.22;;;9.80;90.70;;;;;;10867984;32;20063;-73
2022/12/04 07:53:26;;;;;;;5.22;3.28;;;9.80;90.70;;;;;;10859021;32;20047;-73
2022/12/04 07:59:29;;;;;;;5.12;3.35;;;9.80;90.70;;;;;;10860383;32;20380;-73
2022/12/04 08:05:31;;;;;;;4.03;2.37;;;9.80;90.70;;;;;;10859404;32;20058;-73
2022/12/04 08:11:34;;;;;;;4.57;3.00;;;9.80;90.70;;;;;;10862292;32;20053;-73
2022/12/04 08:17:36;;;;;;;4.95;3.20;;;9.80;90.80;;;;;;10862421;32;20401;-76
2022/12/04 08:23:39;;;;;;;5.03;2.97;;;9.90;90.80;;;;;;10862482;32;20011;-75
2022/12/04 08:29:41;;;;;;;5.40;2.85;;;10.00;90.80;;;;;;10862339;32;20046;-77
2022/12/04 08:35:43;;;;;;;10.77;3.25;;;10.10;90.80;;;;;;10862142;32;20015;-76
2022/12/04 08:41:45;;;;;;;5.28;2.90;;;10.10;90.70;;;;;;10861814;32;20058;-76
2022/12/04 08:47:47;;;;;;;7.90;4.47;;;10.10;90.50;;;;;;10860501;32;20028;-75
2022/12/04 08:53:54;;;;;;;4.60;2.80;;;10.10;90.40;;;;;;10861778;32;20092;-77
2022/12/04 08:59:56;;;;;;;5.85;4.35;;;10.10;90.20;;;;;;10861371;32;20019;-76
2022/12/04 09:06:00;;;;;;;7.43;4.57;;;10.20;90.30;;;;;;10912657;32;20381;-78
2022/12/04 09:12:02;;;;;;;7.15;4.65;;;10.20;90.30;;;;;;10858712;32;20020;-77
2022/12/04 09:18:04;;;;;;;7.32;4.53;;;10.20;90.10;;;;;;10861110;32;20371;-75
2022/12/04 09:24:06;;;;;;;9.43;3.83;;;10.20;89.80;;;;;;10860968;32;20067;-77
2022/12/04 09:30:10;;;;;;;6.87;5.15;;;10.20;89.90;;;;;;10915513;27;20100;-76
2022/12/04 09:36:14;;;;;;;9.23;5.20;;;10.30;89.80;;;;;;10854198;32;20050;-76
2022/12/04 09:42:29;;;;;;;8.15;5.50;;;10.30;89.70;;;;;;10866864;32;20019;-75
2022/12/04 09:48:36;;;;;;;7.97;4.93;;;10.30;89.60;;;;;;10866166;32;20028;-77
2022/12/04 09:54:40;;;;;;;7.50;5.03;;;10.30;89.50;;;;;;10865331;32;20023;-76
2022/12/04 10:00:48;;;;;;;10.40;5.62;;;10.30;89.50;;;;;;10866407;32;20032;-76
2022/12/04 10:06:57;;;;;;;6.78;4.32;;;10.30;89.60;;;;;;10853129;32;20390;-76
2022/12/04 10:13:24;;;;;;;8.60;4.85;;;10.30;89.60;;;;;;10834115;32;20310;-76
2022/12/04 10:20:07;;;;;;;8.52;5.90;;;10.30;89.30;;;;;;10828390;33;20439;-75
2022/12/04 10:26:16;;;;;;;9.27;4.65;;;10.30;89.20;;;;;;10828709;33;20058;-76
2022/12/04 10:32:23;;;;;;;10.30;7.05;;;10.20;89.20;;;;;;10815513;33;20303;-75
2022/12/04 10:38:47;;;;;;;7.55;5.05;;;10.20;89.40;;;;;;10828405;33;20089;-76
2022/12/04 10:44:50;;;;;;;8.63;5.65;;;10.20;89.50;;;;;;10828369;32;20028;-76
2022/12/04 10:50:52;;;;;;;12.73;6.60;;;10.30;89.60;;;;;;10840901;32;20062;-75
2022/12/04 10:56:59;;;;;;;8.52;5.80;;;10.30;89.80;;;;;;10865091;32;20051;-75
2022/12/04 11:03:08;;;;;;;7.28;5.35;;;10.40;89.60;;;;;;10861987;32;20036;-74
2022/12/04 11:09:22;;;;;;;7.47;5.13;;;10.50;89.60;;;;;;10864708;32;20023;-77
2022/12/04 11:15:24;;;;;;;9.02;6.43;;;10.50;89.60;;;;;;10864462;32;20016;-76
2022/12/04 11:21:30;;;;;;;7.40;5.07;;;10.50;89.50;;;;;;10859921;32;20024;-76
2022/12/04 11:27:34;;;;;;;8.15;5.80;;;10.50;89.40;;;;;;10863788;32;20024;-77
2022/12/04 11:33:38;;;;;;;9.70;6.75;;;10.50;89.40;;;;;;10863519;32;20397;-77
2022/12/04 11:39:43;;;;;;;11.20;7.18;;;10.50;89.30;;;;;;10850176;32;20016;-77
2022/12/04 11:46:00;;;;;;;8.25;5.97;;;10.50;89.20;;;;;;10863372;32;20042;-76
2022/12/04 11:52:21;;;;;;;8.80;5.05;;;10.40;89.10;;;;;;10859587;32;20023;-77
2022/12/04 11:58:43;;;;;;;8.70;6.25;;;10.30;89.20;;;;;;10860063;32;20032;-77
2022/12/04 12:05:03;;;;;;;9.68;6.32;;;10.30;89.40;;;;;;10862854;32;20028;-77
2022/12/04 12:11:27;;;;;;;10.38;7.50;;;10.30;89.30;;;;;;10862887;32;20027;-77
2022/12/04 12:17:45;;;;;;;10.95;6.62;;;10.30;89.40;;;;;;10862649;32;20039;-76
2022/12/04 12:24:00;;;;;;;9.93;6.65;;;10.20;89.30;;;;;;10849114;32;20043;-76
2022/12/04 12:36:53;;;;;;;11.27;7.40;;;10.30;89.40;;;;;;10862119;32;20023;-74
2022/12/04 12:43:11;;;;;;;8.82;6.32;;;10.30;89.60;;;;;;10861894;32;20439;-73
2022/12/04 12:49:31;;;;;;;8.15;5.55;;;10.30;89.60;;;;;;10861805;32;20039;-74
2022/12/04 12:55:39;;;;;;;9.32;6.35;;;10.40;89.60;;;;;;10861517;32;20411;-73
2022/12/04 13:01:45;;;;;;;14.20;7.20;;;10.30;89.60;;;;;;10861389;32;20063;-74
2022/12/04 13:08:15;;;;;;;10.25;5.78;;;10.40;89.40;;;;;;10860603;32;20032;-74
2022/12/04 13:14:17;;;;;;;11.48;8.20;;;10.40;89.50;;;;;;10861914;32;20019;-74
2022/12/04 13:20:35;;;;;;;9.20;6.65;;;10.40;89.40;;;;;;10861050;32;20028;-72
2022/12/04 13:27:05;;;;;;;15.00;10.80;;;10.40;89.40;;;;;;10860944;32;20043;-74
2022/12/04 13:33:07;;;;;;;;;;;10.40;89.40;;;;;;10860983;32;20023;-74
2022/12/04 13:39:57;;;;;;;12.80;8.75;;;10.40;89.30;;;;;;10860711;32;19934;-74
2022/12/04 13:46:06;;;;;;;9.80;7.03;;;10.40;89.50;;;;;;10862565;32;20421;-73
2022/12/04 13:52:39;;;;;;;6.97;5.27;;;10.50;89.50;;;;;;10861981;32;20306;-73
2022/12/04 13:58:41;;;;;;;8.73;5.30;;;10.50;89.50;;;;;;10861744;32;20058;-73
2022/12/04 14:04:53;;;;;;;9.00;5.00;;;10.60;89.50;;;;;;10861357;32;20046;-73
2022/12/04 14:10:58;;;;;;;8.70;4.40;;;10.60;89.40;;;;;;10860278;32;20071;-74
2022/12/04 14:17:00;;;;;;;8.40;4.85;;;10.60;89.50;;;;;;10864324;32;20016;-74
2022/12/04 14:23:37;;;;;;;13.10;7.18;;;10.60;89.50;;;;;;10867578;32;20039;-73
2022/12/04 14:29:47;;;;;;;8.80;5.90;;;10.60;89.60;;;;;;10860600;32;20054;-73
2022/12/04 14:35:57;;;;;;;9.52;5.95;;;10.60;89.40;;;;;;10865472;32;20046;-73
2022/12/04 14:42:31;;;;;;;7.80;5.03;;;10.50;89.50;;;;;;10865478;32;20050;-76
2022/12/04 14:49:12;;;;;;;9.07;6.00;;;10.50;89.50;;;;;;10865291;32;20020;-76
2022/12/04 14:55:35;;;;;;;7.65;5.20;;;10.50;89.50;;;;;;10858266;32;20035;-75
2022/12/04 15:01:37;;;;;;;7.20;3.80;;;10.40;89.60;;;;;;10851565;32;20036;-76
2022/12/04 15:07:48;;;;;;;11.60;5.40;;;10.50;89.60;;;;;;10862430;32;20053;-76
2022/12/04 15:13:50;;;;;;;7.12;4.62;;;10.50;89.50;;;;;;10864593;32;20439;-75
2022/12/04 15:19:52;;;;;;;6.03;3.85;;;10.50;89.60;;;;;;10864291;32;20397;-76
2022/12/04 15:25:57;;;;;;;10.00;4.47;;;10.50;89.60;;;;;;10860171;32;20397;-76
2022/12/04 15:32:05;;;;;;;6.95;4.45;;;10.50;89.50;;;;;;10863148;32;20011;-76
2022/12/04 15:38:11;;;;;;;8.10;5.32;;;10.50;89.60;;;;;;10863721;32;20028;-76
2022/12/04 15:44:29;;;;;;;10.65;7.35;;;10.50;89.50;;;;;;10863643;32;20008;-75
2022/12/04 15:50:31;;;;;;;9.90;4.28;;;10.50;89.60;;;;;;10863359;32;20329;-75
2022/12/04 15:56:34;;;;;;;8.63;4.75;;;10.50;89.70;;;;;;10863260;32;20050;-75
2022/12/04 16:02:41;;;;;;;7.18;5.00;;;10.50;89.60;;;;;;10862954;32;20031;-75
2022/12/04 16:08:47;;;;;;;6.85;4.45;;;10.50;89.60;;;;;;10849800;32;20028;-75
2022/12/04 16:14:52;;;;;;;9.07;6.57;;;10.60;89.60;;;;;;10862682;32;20035;-75
2022/12/04 16:20:55;;;;;;;8.18;5.57;;;10.60;89.60;;;;;;10862533;32;20340;-76
2022/12/04 16:27:03;;;;;;;7.75;4.60;;;10.50;89.60;;;;;;10849125;32;20019;-76
2022/12/04 16:33:05;;;;;;;8.38;6.22;;;10.50;89.70;;;;;;10862364;32;20447;-76
2022/12/04 16:39:07;;;;;;;14.95;10.00;;;10.50;89.60;;;;;;10859234;32;20096;-76
2022/12/04 16:45:27;;;;;;;10.80;6.93;;;10.50;89.60;;;;;;10862026;32;20019;-74
2022/12/04 16:51:29;;;;;;;8.13;5.93;;;10.40;89.70;;;;;;10861687;32;20058;-76
2022/12/04 16:57:40;;;;;;;6.90;5.18;;;10.40;89.70;;;;;;10861588;32;20337;-76
2022/12/04 17:03:43;;;;;;;13.07;8.30;;;10.40;89.80;;;;;;10861454;32;20027;-76
2022/12/04 17:09:46;;;;;;;10.52;6.95;;;10.40;89.60;;;;;;10861394;32;20023;-76
2022/12/04 17:15:48;;;;;;;11.02;7.30;;;10.30;89.70;;;;;;10861145;32;20050;-76
2022/12/04 17:21:50;;;;;;;13.00;10.63;;;10.40;89.80;;;;;;10860979;32;20058;-76
2022/12/04 17:27:59;;;;;;;8.95;5.43;;;10.40;89.70;;;;;;10852294;27;20058;-76
2022/12/04 17:34:02;;;;;;;;;;;10.40;89.80;;;;;;10860877;32;20023;-75
2022/12/04 17:40:13;;;;;;;10.68;8.73;;;10.40;89.80;;;;;;10860648;32;19949;-75
2022/12/04 17:46:20;;;;;;;12.98;10.05;;;10.30;89.80;;;;;;10860434;32;20058;-76
2022/12/04 17:52:22;;;;;;;15.50;9.10;;;10.30;89.80;;;;;;10862475;32;20028;-76
2022/12/04 17:58:24;;;;;;;18.58;13.90;;;10.20;89.90;;;;;;10866086;32;20032;-76
2022/12/04 18:04:26;;;;;;;13.88;8.45;;;10.30;89.90;;;;;;10866411;32;20054;-75
2022/12/04 18:10:28;;;;;;;16.67;11.05;;;10.20;89.90;;;;;;10866491;32;20432;-76
2022/12/04 18:16:33;;;;;;;12.57;8.50;;;10.20;90.00;;;;;;10866143;32;20046;-75
2022/12/04 18:22:39;;;;;;;14.13;9.20;;;10.20;90.00;;;;;;10865942;32;20070;-76
2022/12/04 18:28:43;;;;;;;13.80;9.23;;;10.20;90.00;;;;;;10865791;32;20031;-75
2022/12/04 18:34:45;;;;;;;9.30;6.43;;;10.20;90.10;;;;;;10852546;32;20020;-75
2022/12/04 18:40:49;;;;;;;8.88;6.78;;;10.30;90.00;;;;;;10864865;32;20028;-75
2022/12/04 18:46:51;;;;;;;8.30;6.40;;;10.30;90.00;;;;;;10861189;32;20357;-75
2022/12/04 18:52:54;;;;;;;9.75;7.25;;;10.40;90.00;;;;;;10865155;32;20062;-73
2022/12/04 18:59:10;;;;;;;10.27;7.03;;;10.40;89.90;;;;;;10861823;32;20066;-73
2022/12/04 19:05:15;;;;;;;9.82;6.70;;;10.30;89.80;;;;;;10863795;32;20073;-73
2022/12/04 19:11:20;;;;;;;8.90;6.80;;;10.30;89.90;;;;;;10860337;32;20027;-73
2022/12/04 19:17:23;;;;;;;11.63;7.97;;;10.30;89.90;;;;;;10863120;32;20059;-73
2022/12/04 19:23:25;;;;;;;12.05;9.15;;;10.30;89.90;;;;;;10864254;32;20046;-72
2022/12/04 19:29:27;;;;;;;10.90;6.12;;;10.30;89.70;;;;;;10864053;32;20027;-73
2022/12/04 19:35:29;;;;;;;9.23;7.62;;;10.20;89.80;;;;;;10863971;32;20388;-73
2022/12/04 19:41:36;;;;;;;12.00;8.30;;;10.20;89.80;;;;;;10860222;32;20436;-73
2022/12/04 19:47:38;;;;;;;10.95;7.40;;;10.20;89.90;;;;;;10857424;32;20027;-73
2022/12/04 19:53:41;;;;;;;11.15;8.20;;;10.20;89.80;;;;;;10855127;32;20044;-73
2022/12/04 19:59:43;;;;;;;11.80;6.95;;;10.10;89.90;;;;;;10826113;32;20058;-73
2022/12/04 20:05:52;;;;;;;7.68;5.75;;;10.10;89.80;;;;;;10825969;33;20036;-73
2022/12/04 20:11:55;;;;;;;10.23;7.03;;;10.10;89.90;;;;;;10825817;33;20016;-73
2022/12/04 20:17:57;;;;;;;9.00;6.55;;;10.10;89.80;;;;;;10812241;33;20338;-73
2022/12/04 20:24:02;;;;;;;7.00;5.70;;;10.10;90.00;;;;;;10812545;33;20016;-73
2022/12/04 20:30:46;;;;;;;9.68;8.07;;;10.10;90.00;;;;;;10825228;33;20028;-73
2022/12/04 20:37:05;;;;;;;8.35;6.57;;;10.20;89.90;;;;;;10825322;33;20377;-75
2022/12/04 20:43:24;;;;;;;12.43;4.90;;;10.10;90.00;;;;;;10824911;33;20036;-75
2022/12/04 20:49:26;;;;;;;8.27;6.27;;;10.20;90.10;;;;;;10824952;33;20051;-75
2022/12/04 20:55:28;;;;;;;7.45;5.43;;;10.20;90.00;;;;;;10824682;33;20017;-75
2022/12/04 21:01:32;;;;;;;6.10;4.32;;;10.20;90.10;;;;;;10811141;33;20060;-76
2022/12/04 21:07:34;;;;;;;5.53;3.33;;;10.20;90.10;;;;;;10824283;33;20020;-75
2022/12/04 21:20:13;;;;;;;6.62;4.85;;;10.30;89.90;;;;;;10824793;32;20020;-75
2022/12/04 21:26:15;;;;;;;6.93;4.57;;;10.30;89.90;;;;;;10811685;32;20050;-76
2022/12/04 21:32:19;;;;;;;4.72;2.97;;;10.30;89.90;;;;;;10816435;33;20039;-76
2022/12/04 21:38:22;;;;;;;4.47;2.95;;;10.20;90.00;;;;;;10817097;33;20028;-74
2022/12/04 21:44:24;;;;;;;6.57;4.53;;;10.20;90.00;;;;;;10830096;33;20303;-74
2022/12/04 21:50:26;;;;;;;7.18;5.07;;;10.20;89.90;;;;;;10829669;33;20024;-75
2022/12/04 21:56:29;;;;;;;5.22;3.30;;;10.20;90.10;;;;;;10829681;33;20397;-75
2022/12/04 22:02:31;;;;;;;4.45;2.90;;;10.10;90.00;;;;;;10829428;33;20058;-75
2022/12/04 22:08:37;;;;;;;4.78;2.62;;;10.10;90.10;;;;;;10829532;33;20428;-75
2022/12/04 22:14:39;;;;;;;6.22;4.28;;;10.20;90.00;;;;;;10829170;33;20024;-75
2022/12/04 22:20:42;;;;;;;7.50;4.07;;;10.20;90.00;;;;;;10811746;33;20062;-75
2022/12/04 22:26:44;;;;;;;5.40;3.70;;;10.10;89.90;;;;;;10828949;33;20051;-75
2022/12/04 22:32:46;;;;;;;5.57;3.67;;;10.00;90.10;;;;;;10828676;33;20039;-75
2022/12/04 22:38:48;;;;;;;6.45;3.55;;;10.00;90.10;;;;;;10828264;32;20302;-75
2022/12/04 22:44:50;;;;;;;4.62;3.05;;;10.10;90.00;;;;;;10825233;33;20019;-75
2022/12/04 22:51:05;;;;;;;4.53;2.90;;;10.10;90.00;;;;;;10415261;33;11948606;-75
2022/12/04 22:57:17;;;;;;;5.97;3.28;;;10.00;90.00;;;;;;10814934;32;20407;-75
2022/12/04 23:03:19;;;;;;;5.60;3.03;;;10.00;89.90;;;;;;10750996;33;20300;-75
2022/12/04 23:09:21;;;;;;;5.82;3.50;;;10.00;89.90;;;;;;10751310;33;20030;-75
2022/12/04 23:15:23;;;;;;;13.32;3.47;;;10.00;89.80;;;;;;10785238;32;20039;-75
2022/12/04 23:21:26;;;;;;;7.07;5.12;;;9.90;89.80;;;;;;10827251;33;20050;-75
2022/12/04 23:27:30;;;;;;;8.85;5.47;;;9.90;89.70;;;;;;10827251;32;20047;-75
2022/12/04 23:33:33;;;;;;;5.55;3.75;;;9.80;89.90;;;;;;10813695;33;20046;-75
2022/12/04 23:39:35;;;;;;;7.15;4.55;;;9.70;90.00;;;;;;10822526;33;20390;-75
2022/12/04 23:45:38;;;;;;;7.43;3.80;;;9.80;90.10;;;;;;10826497;33;20059;-75
2022/12/04 23:51:40;;;;;;;6.80;4.07;;;9.80;90.10;;;;;;10812649;32;20055;-75
2022/12/04 23:57:43;;;;;;;5.65;3.80;;;9.80;90.00;;;;;;10813259;33;20017;-75
